Kakusui Maru — JD4129 — position and weather

sailwx.info

Track history (hours):
 
Tides and Currents Weather Stations Pressure Air Temp Water Temp Dewpoint Dewpoint Depression Visibility Wind Speed Wind Dir Waves Ship Positions

Kakusui Maru

Last reported at 2018-Jun-19 04:02 UTC. Time now 2018-Jun-21 06:37 UTC.
Position N 33°54' E 135°02'.

Length 64 m; draft 3.5 m.

Type: Tanker. MMSI: 431009016.

Date/timePositionNaut miles runAvg speedWind from/ knotsBaromVisibWave heightAir tempDewpointWater temp
2018-Jun-19 04:02N 33°54' E 135°02'011.5
2018-Jun-19 04:00N 33°55' E 135°02'611.6
2018-Jun-19 03:30N 34°00' E 135°02'611.7
2018-Jun-19 03:00N 34°06' E 135°02'611.9
2018-Jun-19 02:30N 34°12' E 135°02'611.2
2018-Jun-19 02:00N 34°18' E 135°04'611.0
2018-Jun-19 01:30N 34°23' E 135°07'612.8
2018-Jun-19 01:00N 34°28' E 135°12'612.3
2018-Jun-19 00:29N 34°33' E 135°15'612.1
2018-Jun-19 00:00N 34°39' E 135°18'4 8.0
2018-Jun-18 23:29N 34°43' E 135°18'0 0.0
2018-Jun-18 23:00N 34°43' E 135°18'0 0.0
2018-Jun-18 22:25N 34°43' E 135°18'0 0.0
2018-Jun-18 22:00N 34°43' E 135°18'0 0.0
2018-Jun-18 21:30N 34°43' E 135°18'0 0.0
2018-Jun-18 21:00N 34°43' E 135°18'0 0.0
2018-Jun-18 20:30N 34°43' E 135°18'0 0.0
2018-Jun-18 20:00N 34°43' E 135°18'0 0.0
2018-Jun-18 19:30N 34°43' E 135°18'0 0.0
2018-Jun-18 18:57N 34°43' E 135°18'0 0.0
2018-Jun-18 18:30N 34°43' E 135°18'0 0.0
2018-Jun-18 18:00N 34°43' E 135°18'0 0.0
2018-Jun-18 17:30N 34°43' E 135°18'0 0.0
2018-Jun-18 17:00N 34°43' E 135°18'0 0.0
2018-Jun-18 16:30N 34°43' E 135°18'0 0.0
2018-Jun-18 16:00N 34°43' E 135°18'0 0.0
2018-Jun-18 15:30N 34°43' E 135°18'0 0.0
2018-Jun-18 15:00N 34°43' E 135°18'0 0.0
2018-Jun-18 14:30N 34°43' E 135°18'0 0.0
2018-Jun-18 14:00N 34°43' E 135°18'0 0.0
2018-Jun-18 13:30N 34°43' E 135°18'0 0.0
2018-Jun-18 13:00N 34°43' E 135°18'0 0.0
2018-Jun-18 12:27N 34°43' E 135°18'0 0.0
2018-Jun-18 12:00N 34°43' E 135°18'0 0.0
2018-Jun-18 11:28N 34°43' E 135°18'0 0.0
2018-Jun-18 11:00N 34°43' E 135°18'0 0.0
2018-Jun-18 10:30N 34°43' E 135°18'0 0.0
2018-Jun-18 10:00N 34°43' E 135°18'0 0.0
2018-Jun-18 09:30N 34°43' E 135°18'0 0.0
2018-Jun-18 08:56N 34°43' E 135°18'0 0.0
2018-Jun-18 08:30N 34°43' E 135°18'0 0.0
2018-Jun-18 08:00N 34°43' E 135°18'0 0.0
2018-Jun-18 07:30N 34°43' E 135°18'0 0.0
2018-Jun-18 07:00N 34°43' E 135°18'0 0.0
2018-Jun-18 06:30N 34°43' E 135°18'0 0.0
2018-Jun-18 06:00N 34°43' E 135°18'0 0.0
2018-Jun-18 05:30N 34°43' E 135°18'0 0.0
2018-Jun-18 05:00N 34°43' E 135°18'0 0.0
2018-Jun-18 04:30N 34°43' E 135°18'0 0.0
2018-Jun-18 04:00N 34°43' E 135°18'0 0.0
2018-Jun-18 03:30N 34°43' E 135°18'0 0.1
2018-Jun-18 03:01N 34°43' E 135°18'5 9.1
2018-Jun-18 02:30N 34°39' E 135°21'6 1.4
2018-Jun-17 22:18N 34°35' E 135°26'2 8.2
2018-Jun-17 22:00N 34°36' E 135°24'4 7.5
2018-Jun-17 21:30N 34°38' E 135°19'510.9
2018-Jun-17 21:01N 34°43' E 135°17'0 0.5
2018-Jun-17 20:29N 34°43' E 135°18'0 0.0
2018-Jun-17 20:00N 34°43' E 135°18'0 0.0
2018-Jun-17 19:30N 34°43' E 135°18'0 0.0
2018-Jun-17 19:00N 34°43' E 135°18'0 0.0
2018-Jun-17 18:30N 34°43' E 135°18'0 0.0
2018-Jun-17 18:00N 34°43' E 135°18'0 0.0
2018-Jun-17 17:30N 34°43' E 135°18'0 0.0
2018-Jun-17 17:00N 34°43' E 135°18'0 0.0
2018-Jun-17 16:30N 34°43' E 135°18'0 0.0
2018-Jun-17 16:00N 34°43' E 135°18'0 0.0
2018-Jun-17 15:30N 34°43' E 135°18'0 0.0
2018-Jun-17 15:00N 34°43' E 135°18'0 0.0
2018-Jun-17 14:30N 34°43' E 135°18'0 0.0
2018-Jun-17 14:00N 34°43' E 135°18'0 0.0
2018-Jun-17 13:30N 34°43' E 135°18'0 0.0
2018-Jun-17 13:00N 34°43' E 135°18'0 0.0
2018-Jun-17 12:30N 34°43' E 135°18'0 0.0
2018-Jun-17 12:00N 34°43' E 135°18'0 0.0
2018-Jun-17 11:28N 34°43' E 135°18'0 0.0
2018-Jun-17 11:00N 34°43' E 135°18'0 0.0
2018-Jun-17 10:30N 34°43' E 135°18'0 0.0
2018-Jun-17 10:00N 34°43' E 135°18'0 0.0
2018-Jun-17 09:28N 34°43' E 135°18'0 0.0
2018-Jun-17 09:00N 34°43' E 135°18'0 0.0
2018-Jun-17 08:27N 34°43' E 135°18'0 0.0
2018-Jun-17 08:00N 34°43' E 135°18'0 0.0
2018-Jun-17 07:28N 34°43' E 135°18'0 0.0
2018-Jun-17 07:00N 34°43' E 135°18'0 0.0
2018-Jun-17 06:30N 34°43' E 135°18'0 0.0
2018-Jun-17 06:00N 34°43' E 135°18'0 0.0
2018-Jun-17 05:30N 34°43' E 135°18'0 0.0
2018-Jun-17 05:00N 34°43' E 135°18'0 0.0
2018-Jun-17 04:30N 34°43' E 135°18'0 0.0
2018-Jun-17 04:00N 34°43' E 135°18'0 0.0
2018-Jun-17 03:30N 34°43' E 135°18'0 0.0
2018-Jun-17 03:00N 34°43' E 135°18'0 0.0
2018-Jun-17 02:30N 34°43' E 135°18'0 0.0
2018-Jun-17 02:00N 34°43' E 135°18'0 0.0
2018-Jun-17 01:30N 34°43' E 135°18'0 0.0
2018-Jun-17 00:59N 34°43' E 135°18'0 0.0
2018-Jun-17 00:30N 34°43' E 135°18'0 0.0
2018-Jun-17 00:00N 34°43' E 135°18'0 0.0
2018-Jun-16 23:30N 34°43' E 135°18'0 0.0
2018-Jun-16 23:00N 34°43' E 135°18'0 0.0
2018-Jun-16 22:30N 34°43' E 135°18'0 0.0
2018-Jun-16 22:00N 34°43' E 135°18'0 0.0
2018-Jun-16 21:30N 34°43' E 135°18'0 0.0
2018-Jun-16 20:59N 34°43' E 135°18'0 0.0
2018-Jun-16 20:30N 34°43' E 135°18'0 0.0
2018-Jun-16 19:59N 34°43' E 135°18'0 0.0
2018-Jun-16 19:30N 34°43' E 135°18'0 0.0
2018-Jun-16 19:00N 34°43' E 135°18'0 0.0
2018-Jun-16 18:30N 34°43' E 135°18'0 0.0
2018-Jun-16 18:00N 34°43' E 135°18'0 0.0
2018-Jun-16 17:30N 34°43' E 135°18'0 0.0
2018-Jun-16 17:00N 34°43' E 135°18'0 0.0
2018-Jun-16 16:30N 34°43' E 135°18'0 0.0
2018-Jun-16 16:00N 34°43' E 135°18'0 0.0
2018-Jun-16 15:30N 34°43' E 135°18'0 0.0
2018-Jun-16 15:00N 34°43' E 135°18'0 0.0
2018-Jun-16 14:30N 34°43' E 135°18'0 0.0
2018-Jun-16 13:57N 34°43' E 135°18'0 0.0
2018-Jun-16 13:30N 34°43' E 135°18'0 0.0
2018-Jun-16 13:00N 34°43' E 135°18'0 0.0
2018-Jun-16 12:30N 34°43' E 135°18'0 0.0
2018-Jun-16 12:00N 34°43' E 135°18'0 0.0
2018-Jun-16 11:30N 34°43' E 135°18'0 0.0
2018-Jun-16 11:00N 34°43' E 135°18'0 0.0
2018-Jun-16 10:30N 34°43' E 135°18'0 0.0
2018-Jun-16 09:59N 34°43' E 135°18'0 0.0
2018-Jun-16 09:30N 34°43' E 135°18'0 0.0
2018-Jun-16 09:00N 34°43' E 135°18'0 0.0
2018-Jun-16 08:30N 34°43' E 135°18'0 0.0
2018-Jun-16 08:00N 34°43' E 135°18'0 0.0
2018-Jun-16 07:29N 34°43' E 135°18'0 0.0
2018-Jun-16 07:00N 34°43' E 135°18'0 0.0
2018-Jun-16 06:30N 34°43' E 135°18'0 0.0
2018-Jun-16 05:59N 34°43' E 135°18'0 0.0
2018-Jun-16 05:30N 34°43' E 135°18'0 0.0
2018-Jun-16 05:00N 34°43' E 135°18'0 0.0
2018-Jun-16 04:30N 34°43' E 135°18'0 0.2
2018-Jun-16 04:00N 34°43' E 135°18'5 9.3
2018-Jun-16 03:30N 34°38' E 135°17'611.5
2018-Jun-16 03:00N 34°33' E 135°14'611.6
2018-Jun-16 02:30N 34°28' E 135°11'611.1
2018-Jun-16 02:00N 34°23' E 135°07'511.0
2018-Jun-16 01:31N 34°19' E 135°04'611.3
2018-Jun-16 01:00N 34°13' E 135°03'811.7
2018-Jun-16 00:17N 34°05' E 135°03'311.7
2018-Jun-16 00:00N 34°01' E 135°03'10 0.3
2018-Jun-14 11:08N 33°52' E 135°03'211.8
2018-Jun-14 11:00N 33°53' E 135°02'611.9
2018-Jun-14 10:30N 33°59' E 135°02'611.7
2018-Jun-14 10:00N 34°05' E 135°02'611.8
2018-Jun-14 09:30N 34°11' E 135°02'611.3
2018-Jun-14 09:00N 34°16' E 135°03'510.8
2018-Jun-14 08:30N 34°21' E 135°06'612.4
2018-Jun-14 08:00N 34°26' E 135°11'612.6
2018-Jun-14 07:30N 34°30' E 135°17'612.3
2018-Jun-14 07:00N 34°34' E 135°22'3 4.8
2018-Jun-14 06:24N 34°35' E 135°25'0 0.6
2018-Jun-14 06:00N 34°35' E 135°25'1 0.1
2018-Jun-14 00:30N 34°35' E 135°26'7 8.7
2018-Jun-13 23:39N 34°32' E 135°18'211.5
2018-Jun-13 23:29N 34°31' E 135°17'611.5
2018-Jun-13 23:00N 34°27' E 135°12'611.9
2018-Jun-13 22:30N 34°22' E 135°07'612.1
2018-Jun-13 22:00N 34°17' E 135°03'611.9
2018-Jun-13 21:29N 34°11' E 135°03'811.9
2018-Jun-13 20:48N 34°03' E 135°03'311.9
2018-Jun-13 20:30N 33°59' E 135°02'11 0.3
2018-Jun-12 07:17N 33°48' E 135°06'411.9
2018-Jun-12 06:57N 33°52' E 135°03'511.2
2018-Jun-12 06:30N 33°56' E 135°03'612.5
2018-Jun-12 06:00N 34°03' E 135°03'612.7
2018-Jun-12 05:30N 34°09' E 135°03'612.4
2018-Jun-12 05:00N 34°15' E 135°03'612.9
2018-Jun-12 04:30N 34°21' E 135°06'713.3
2018-Jun-12 04:00N 34°26' E 135°11'713.1
2018-Jun-12 03:30N 34°32' E 135°15'612.3
2018-Jun-12 03:00N 34°38' E 135°17'510.3
2018-Jun-12 02:30N 34°43' E 135°18'0 0.1
2018-Jun-12 02:00N 34°43' E 135°18'0 0.0
2018-Jun-12 01:30N 34°43' E 135°18'0 0.0
2018-Jun-12 01:00N 34°43' E 135°18'0 0.0
2018-Jun-12 00:30N 34°43' E 135°18'0 0.0
2018-Jun-12 00:00N 34°43' E 135°18'0 0.0
2018-Jun-11 23:30N 34°43' E 135°18'0 0.0
2018-Jun-11 23:00N 34°43' E 135°18'0 0.0
2018-Jun-11 22:30N 34°43' E 135°18'0 0.0
2018-Jun-11 22:00N 34°43' E 135°18'0 0.0
2018-Jun-11 21:23N 34°43' E 135°18'0 0.0
2018-Jun-11 21:00N 34°43' E 135°18'0 0.0
2018-Jun-11 20:30N 34°43' E 135°18'0 0.0
2018-Jun-11 20:00N 34°43' E 135°18'0 0.0
2018-Jun-11 19:30N 34°43' E 135°18'0 0.0
2018-Jun-11 19:00N 34°43' E 135°18'0 0.0
2018-Jun-11 18:30N 34°43' E 135°18'0 0.0
2018-Jun-11 18:00N 34°43' E 135°18'0 0.0
2018-Jun-11 17:29N 34°43' E 135°18'0 0.0
2018-Jun-11 17:00N 34°43' E 135°18'0 0.0
2018-Jun-11 16:30N 34°43' E 135°18'0 0.0
2018-Jun-11 16:00N 34°43' E 135°18'0 0.0
2018-Jun-11 15:30N 34°43' E 135°18'0 0.0
2018-Jun-11 15:00N 34°43' E 135°18'0 0.0
2018-Jun-11 14:30N 34°43' E 135°18'0 0.0
2018-Jun-11 14:00N 34°43' E 135°18'0 0.0
2018-Jun-11 13:30N 34°43' E 135°18'0 0.0
2018-Jun-11 13:00N 34°43' E 135°18'0 0.0
2018-Jun-11 12:30N 34°43' E 135°18'0 0.0
2018-Jun-11 12:00N 34°43' E 135°18'0 0.0
2018-Jun-11 11:30N 34°43' E 135°18'0 0.0
2018-Jun-11 11:00N 34°43' E 135°18'0 0.0
2018-Jun-11 10:30N 34°43' E 135°18'0 0.0
2018-Jun-11 10:00N 34°43' E 135°18'0 0.0
2018-Jun-11 09:30N 34°43' E 135°18'0 0.0
2018-Jun-11 09:00N 34°43' E 135°18'0 0.0
2018-Jun-11 08:30N 34°43' E 135°18'0 0.0
2018-Jun-11 08:00N 34°43' E 135°18'0 0.0
2018-Jun-11 07:30N 34°43' E 135°18'0 0.0
2018-Jun-11 07:00N 34°43' E 135°18'0 0.0
2018-Jun-11 06:30N 34°43' E 135°18'0 0.0
2018-Jun-11 06:00N 34°43' E 135°18'0 0.0
2018-Jun-11 05:29N 34°43' E 135°18'0 0.0
2018-Jun-11 05:00N 34°43' E 135°18'0 0.0
2018-Jun-11 04:30N 34°43' E 135°18'0 0.0
2018-Jun-11 04:00N 34°43' E 135°18'0 0.0
2018-Jun-11 03:30N 34°43' E 135°18'0 0.0
2018-Jun-11 03:00N 34°43' E 135°18'1 2.7
2018-Jun-11 02:30N 34°42' E 135°18'611.5
2018-Jun-11 02:00N 34°38' E 135°23'4 1.0
2018-Jun-10 22:18N 34°35' E 135°26'2 7.6
2018-Jun-10 22:00N 34°36' E 135°24'5 9.4
2018-Jun-10 21:30N 34°39' E 135°19'5 9.0
2018-Jun-10 21:00N 34°43' E 135°18'0 0.0
2018-Jun-10 20:30N 34°43' E 135°18'0 0.0
2018-Jun-10 20:00N 34°43' E 135°18'0 0.0
2018-Jun-10 19:30N 34°43' E 135°18'0 0.0
2018-Jun-10 19:00N 34°43' E 135°18'0 0.0
2018-Jun-10 18:30N 34°43' E 135°18'0 0.0
2018-Jun-10 17:58N 34°43' E 135°18'0 0.0
2018-Jun-10 17:30N 34°43' E 135°18'0 0.0
2018-Jun-10 17:00N 34°43' E 135°18'0 0.0
2018-Jun-10 16:30N 34°43' E 135°18'0 0.0
2018-Jun-10 16:00N 34°43' E 135°18'0 0.0
2018-Jun-10 15:30N 34°43' E 135°18'0 0.0
2018-Jun-10 15:00N 34°43' E 135°18'0 0.0
2018-Jun-10 14:30N 34°43' E 135°18'0 0.0
2018-Jun-10 13:30N 34°43' E 135°18'0 0.0
2018-Jun-10 13:00N 34°43' E 135°18'0 0.0
2018-Jun-10 12:30N 34°43' E 135°18'0 0.0
2018-Jun-10 12:00N 34°43' E 135°18'0 0.0
2018-Jun-10 11:27N 34°43' E 135°18'0 0.0
2018-Jun-10 11:00N 34°43' E 135°18'0 0.0
2018-Jun-10 10:30N 34°43' E 135°18'0 0.0
2018-Jun-10 10:00N 34°43' E 135°18'0 0.0
2018-Jun-10 09:29N 34°43' E 135°18'0 0.0
2018-Jun-10 09:00N 34°43' E 135°18'0 0.0
2018-Jun-10 08:30N 34°43' E 135°18'0 0.0
2018-Jun-10 08:00N 34°43' E 135°18'0 0.0
2018-Jun-10 07:30N 34°43' E 135°18'0 0.0
2018-Jun-10 07:00N 34°43' E 135°18'0 0.0
2018-Jun-10 06:30N 34°43' E 135°18'0 0.0
2018-Jun-10 06:00N 34°43' E 135°18'0 0.0
2018-Jun-10 05:30N 34°43' E 135°18'0 0.0
2018-Jun-10 05:00N 34°43' E 135°18'0 0.0
2018-Jun-10 04:30N 34°43' E 135°18'0 0.0
2018-Jun-10 04:00N 34°43' E 135°18'0 0.0
2018-Jun-10 03:30N 34°43' E 135°18'0 0.0
2018-Jun-10 03:00N 34°43' E 135°18'0 0.0
2018-Jun-10 02:30N 34°43' E 135°18'0 0.0
2018-Jun-10 02:00N 34°43' E 135°18'0 0.0
2018-Jun-10 01:30N 34°43' E 135°18'0 0.0
2018-Jun-10 01:00N 34°43' E 135°18'0 0.0
2018-Jun-10 00:30N 34°43' E 135°18'0 0.0
2018-Jun-10 00:00N 34°43' E 135°18'0 0.0
2018-Jun-09 23:30N 34°43' E 135°18'0 0.0
2018-Jun-09 23:00N 34°43' E 135°18'0 0.0
2018-Jun-09 22:30N 34°43' E 135°18'0 0.0
2018-Jun-09 22:00N 34°43' E 135°18'0 0.0
2018-Jun-09 21:30N 34°43' E 135°18'0 0.0
2018-Jun-09 21:00N 34°43' E 135°18'0 0.0
2018-Jun-09 20:30N 34°43' E 135°18'0 0.0
2018-Jun-09 20:00N 34°43' E 135°18'0 0.0
2018-Jun-09 19:30N 34°43' E 135°18'0 0.0
2018-Jun-09 19:00N 34°43' E 135°18'0 0.0
2018-Jun-09 18:30N 34°43' E 135°18'0 0.0
2018-Jun-09 18:00N 34°43' E 135°18'0 0.0
2018-Jun-09 17:30N 34°43' E 135°18'0 0.0
2018-Jun-09 17:00N 34°43' E 135°18'0 0.0
2018-Jun-09 16:30N 34°43' E 135°18'0 0.0
2018-Jun-09 16:00N 34°43' E 135°18'0 0.0
2018-Jun-09 15:00N 34°43' E 135°18'0 0.0
2018-Jun-09 14:30N 34°43' E 135°18'0 0.0
2018-Jun-09 14:00N 34°43' E 135°18'0 0.0
2018-Jun-09 13:30N 34°43' E 135°18'0 0.0
2018-Jun-09 13:00N 34°43' E 135°18'0 0.0
2018-Jun-09 12:30N 34°43' E 135°18'0 0.0
2018-Jun-09 12:00N 34°43' E 135°18'0 0.0
2018-Jun-09 11:30N 34°43' E 135°18'0 0.0
2018-Jun-09 11:00N 34°43' E 135°18'0 0.0
2018-Jun-09 10:30N 34°43' E 135°18'0 0.0
2018-Jun-09 10:00N 34°43' E 135°18'0 0.0
2018-Jun-09 09:30N 34°43' E 135°18'0 0.0
2018-Jun-09 09:00N 34°43' E 135°18'0 0.0
2018-Jun-09 08:30N 34°43' E 135°18'0 0.0
2018-Jun-09 08:00N 34°43' E 135°18'0 0.0
2018-Jun-09 07:30N 34°43' E 135°18'0 0.0
2018-Jun-09 07:00N 34°43' E 135°18'0 0.0
2018-Jun-09 06:30N 34°43' E 135°18'0 0.0
2018-Jun-09 06:00N 34°43' E 135°18'0 0.0
2018-Jun-09 05:30N 34°43' E 135°18'0 0.0
2018-Jun-09 05:00N 34°43' E 135°18'0 0.0
2018-Jun-09 04:30N 34°43' E 135°18'  
Track history (hours):
 
Tides and Currents Weather Stations Pressure Air Temp Water Temp Dewpoint Dewpoint Depression Visibility Wind Speed Wind Dir Waves Ship Positions

Kakusui Maru

Last reported at 2018-Jun-19 04:02 UTC. Time now 2018-Jun-21 06:37 UTC.
Position N 33°54' E 135°02'.

Length 64 m; draft 3.5 m.

Type: Tanker. MMSI: 431009016.

Date/timePositionNaut miles runAvg speedWind from/ knotsBaromVisibWave heightAir tempDewpointWater temp
2018-Jun-19 04:02N 33°54' E 135°02'011.5
2018-Jun-19 04:00N 33°55' E 135°02'611.6
2018-Jun-19 03:30N 34°00' E 135°02'611.7
2018-Jun-19 03:00N 34°06' E 135°02'611.9
2018-Jun-19 02:30N 34°12' E 135°02'611.2
2018-Jun-19 02:00N 34°18' E 135°04'611.0
2018-Jun-19 01:30N 34°23' E 135°07'612.8
2018-Jun-19 01:00N 34°28' E 135°12'612.3
2018-Jun-19 00:29N 34°33' E 135°15'612.1
2018-Jun-19 00:00N 34°39' E 135°18'4 8.0
2018-Jun-18 23:29N 34°43' E 135°18'0 0.0
2018-Jun-18 23:00N 34°43' E 135°18'0 0.0
2018-Jun-18 22:25N 34°43' E 135°18'0 0.0
2018-Jun-18 22:00N 34°43' E 135°18'0 0.0
2018-Jun-18 21:30N 34°43' E 135°18'0 0.0
2018-Jun-18 21:00N 34°43' E 135°18'0 0.0
2018-Jun-18 20:30N 34°43' E 135°18'0 0.0
2018-Jun-18 20:00N 34°43' E 135°18'0 0.0
2018-Jun-18 19:30N 34°43' E 135°18'0 0.0
2018-Jun-18 18:57N 34°43' E 135°18'0 0.0
2018-Jun-18 18:30N 34°43' E 135°18'0 0.0
2018-Jun-18 18:00N 34°43' E 135°18'0 0.0
2018-Jun-18 17:30N 34°43' E 135°18'0 0.0
2018-Jun-18 17:00N 34°43' E 135°18'0 0.0
2018-Jun-18 16:30N 34°43' E 135°18'0 0.0
2018-Jun-18 16:00N 34°43' E 135°18'0 0.0
2018-Jun-18 15:30N 34°43' E 135°18'0 0.0
2018-Jun-18 15:00N 34°43' E 135°18'0 0.0
2018-Jun-18 14:30N 34°43' E 135°18'0 0.0
2018-Jun-18 14:00N 34°43' E 135°18'0 0.0
2018-Jun-18 13:30N 34°43' E 135°18'0 0.0
2018-Jun-18 13:00N 34°43' E 135°18'0 0.0
2018-Jun-18 12:27N 34°43' E 135°18'0 0.0
2018-Jun-18 12:00N 34°43' E 135°18'0 0.0
2018-Jun-18 11:28N 34°43' E 135°18'0 0.0
2018-Jun-18 11:00N 34°43' E 135°18'0 0.0
2018-Jun-18 10:30N 34°43' E 135°18'0 0.0
2018-Jun-18 10:00N 34°43' E 135°18'0 0.0
2018-Jun-18 09:30N 34°43' E 135°18'0 0.0
2018-Jun-18 08:56N 34°43' E 135°18'0 0.0
2018-Jun-18 08:30N 34°43' E 135°18'0 0.0
2018-Jun-18 08:00N 34°43' E 135°18'0 0.0
2018-Jun-18 07:30N 34°43' E 135°18'0 0.0
2018-Jun-18 07:00N 34°43' E 135°18'0 0.0
2018-Jun-18 06:30N 34°43' E 135°18'0 0.0
2018-Jun-18 06:00N 34°43' E 135°18'0 0.0
2018-Jun-18 05:30N 34°43' E 135°18'0 0.0
2018-Jun-18 05:00N 34°43' E 135°18'0 0.0
2018-Jun-18 04:30N 34°43' E 135°18'0 0.0
2018-Jun-18 04:00N 34°43' E 135°18'0 0.0
2018-Jun-18 03:30N 34°43' E 135°18'0 0.1
2018-Jun-18 03:01N 34°43' E 135°18'5 9.1
2018-Jun-18 02:30N 34°39' E 135°21'6 1.4
2018-Jun-17 22:18N 34°35' E 135°26'2 8.2
2018-Jun-17 22:00N 34°36' E 135°24'4 7.5
2018-Jun-17 21:30N 34°38' E 135°19'510.9
2018-Jun-17 21:01N 34°43' E 135°17'0 0.5
2018-Jun-17 20:29N 34°43' E 135°18'0 0.0
2018-Jun-17 20:00N 34°43' E 135°18'0 0.0
2018-Jun-17 19:30N 34°43' E 135°18'0 0.0
2018-Jun-17 19:00N 34°43' E 135°18'0 0.0
2018-Jun-17 18:30N 34°43' E 135°18'0 0.0
2018-Jun-17 18:00N 34°43' E 135°18'0 0.0
2018-Jun-17 17:30N 34°43' E 135°18'0 0.0
2018-Jun-17 17:00N 34°43' E 135°18'0 0.0
2018-Jun-17 16:30N 34°43' E 135°18'0 0.0
2018-Jun-17 16:00N 34°43' E 135°18'0 0.0
2018-Jun-17 15:30N 34°43' E 135°18'0 0.0
2018-Jun-17 15:00N 34°43' E 135°18'0 0.0
2018-Jun-17 14:30N 34°43' E 135°18'0 0.0
2018-Jun-17 14:00N 34°43' E 135°18'0 0.0
2018-Jun-17 13:30N 34°43' E 135°18'0 0.0
2018-Jun-17 13:00N 34°43' E 135°18'0 0.0
2018-Jun-17 12:30N 34°43' E 135°18'0 0.0
2018-Jun-17 12:00N 34°43' E 135°18'0 0.0
2018-Jun-17 11:28N 34°43' E 135°18'0 0.0
2018-Jun-17 11:00N 34°43' E 135°18'0 0.0
2018-Jun-17 10:30N 34°43' E 135°18'0 0.0
2018-Jun-17 10:00N 34°43' E 135°18'0 0.0
2018-Jun-17 09:28N 34°43' E 135°18'0 0.0
2018-Jun-17 09:00N 34°43' E 135°18'0 0.0
2018-Jun-17 08:27N 34°43' E 135°18'0 0.0
2018-Jun-17 08:00N 34°43' E 135°18'0 0.0
2018-Jun-17 07:28N 34°43' E 135°18'0 0.0
2018-Jun-17 07:00N 34°43' E 135°18'0 0.0
2018-Jun-17 06:30N 34°43' E 135°18'0 0.0
2018-Jun-17 06:00N 34°43' E 135°18'0 0.0
2018-Jun-17 05:30N 34°43' E 135°18'0 0.0
2018-Jun-17 05:00N 34°43' E 135°18'0 0.0
2018-Jun-17 04:30N 34°43' E 135°18'0 0.0
2018-Jun-17 04:00N 34°43' E 135°18'0 0.0
2018-Jun-17 03:30N 34°43' E 135°18'0 0.0
2018-Jun-17 03:00N 34°43' E 135°18'0 0.0
2018-Jun-17 02:30N 34°43' E 135°18'0 0.0
2018-Jun-17 02:00N 34°43' E 135°18'0 0.0
2018-Jun-17 01:30N 34°43' E 135°18'0 0.0
2018-Jun-17 00:59N 34°43' E 135°18'0 0.0
2018-Jun-17 00:30N 34°43' E 135°18'0 0.0
2018-Jun-17 00:00N 34°43' E 135°18'0 0.0
2018-Jun-16 23:30N 34°43' E 135°18'0 0.0
2018-Jun-16 23:00N 34°43' E 135°18'0 0.0
2018-Jun-16 22:30N 34°43' E 135°18'0 0.0
2018-Jun-16 22:00N 34°43' E 135°18'0 0.0
2018-Jun-16 21:30N 34°43' E 135°18'0 0.0
2018-Jun-16 20:59N 34°43' E 135°18'0 0.0
2018-Jun-16 20:30N 34°43' E 135°18'0 0.0
2018-Jun-16 19:59N 34°43' E 135°18'0 0.0
2018-Jun-16 19:30N 34°43' E 135°18'0 0.0
2018-Jun-16 19:00N 34°43' E 135°18'0 0.0
2018-Jun-16 18:30N 34°43' E 135°18'0 0.0
2018-Jun-16 18:00N 34°43' E 135°18'0 0.0
2018-Jun-16 17:30N 34°43' E 135°18'0 0.0
2018-Jun-16 17:00N 34°43' E 135°18'0 0.0
2018-Jun-16 16:30N 34°43' E 135°18'0 0.0
2018-Jun-16 16:00N 34°43' E 135°18'0 0.0
2018-Jun-16 15:30N 34°43' E 135°18'0 0.0
2018-Jun-16 15:00N 34°43' E 135°18'0 0.0
2018-Jun-16 14:30N 34°43' E 135°18'0 0.0
2018-Jun-16 13:57N 34°43' E 135°18'0 0.0
2018-Jun-16 13:30N 34°43' E 135°18'0 0.0
2018-Jun-16 13:00N 34°43' E 135°18'0 0.0
2018-Jun-16 12:30N 34°43' E 135°18'0 0.0
2018-Jun-16 12:00N 34°43' E 135°18'0 0.0
2018-Jun-16 11:30N 34°43' E 135°18'0 0.0
2018-Jun-16 11:00N 34°43' E 135°18'0 0.0
2018-Jun-16 10:30N 34°43' E 135°18'0 0.0
2018-Jun-16 09:59N 34°43' E 135°18'0 0.0
2018-Jun-16 09:30N 34°43' E 135°18'0 0.0
2018-Jun-16 09:00N 34°43' E 135°18'0 0.0
2018-Jun-16 08:30N 34°43' E 135°18'0 0.0
2018-Jun-16 08:00N 34°43' E 135°18'0 0.0
2018-Jun-16 07:29N 34°43' E 135°18'0 0.0
2018-Jun-16 07:00N 34°43' E 135°18'0 0.0
2018-Jun-16 06:30N 34°43' E 135°18'0 0.0
2018-Jun-16 05:59N 34°43' E 135°18'0 0.0
2018-Jun-16 05:30N 34°43' E 135°18'0 0.0
2018-Jun-16 05:00N 34°43' E 135°18'0 0.0
2018-Jun-16 04:30N 34°43' E 135°18'0 0.2
2018-Jun-16 04:00N 34°43' E 135°18'5 9.3
2018-Jun-16 03:30N 34°38' E 135°17'611.5
2018-Jun-16 03:00N 34°33' E 135°14'611.6
2018-Jun-16 02:30N 34°28' E 135°11'611.1
2018-Jun-16 02:00N 34°23' E 135°07'511.0
2018-Jun-16 01:31N 34°19' E 135°04'611.3
2018-Jun-16 01:00N 34°13' E 135°03'811.7
2018-Jun-16 00:17N 34°05' E 135°03'311.7
2018-Jun-16 00:00N 34°01' E 135°03'10 0.3
2018-Jun-14 11:08N 33°52' E 135°03'211.8
2018-Jun-14 11:00N 33°53' E 135°02'611.9
2018-Jun-14 10:30N 33°59' E 135°02'611.7
2018-Jun-14 10:00N 34°05' E 135°02'611.8
2018-Jun-14 09:30N 34°11' E 135°02'611.3
2018-Jun-14 09:00N 34°16' E 135°03'510.8
2018-Jun-14 08:30N 34°21' E 135°06'612.4
2018-Jun-14 08:00N 34°26' E 135°11'612.6
2018-Jun-14 07:30N 34°30' E 135°17'612.3
2018-Jun-14 07:00N 34°34' E 135°22'3 4.8
2018-Jun-14 06:24N 34°35' E 135°25'0 0.6
2018-Jun-14 06:00N 34°35' E 135°25'1 0.1
2018-Jun-14 00:30N 34°35' E 135°26'7 8.7
2018-Jun-13 23:39N 34°32' E 135°18'211.5
2018-Jun-13 23:29N 34°31' E 135°17'611.5
2018-Jun-13 23:00N 34°27' E 135°12'611.9
2018-Jun-13 22:30N 34°22' E 135°07'612.1
2018-Jun-13 22:00N 34°17' E 135°03'611.9
2018-Jun-13 21:29N 34°11' E 135°03'811.9
2018-Jun-13 20:48N 34°03' E 135°03'311.9
2018-Jun-13 20:30N 33°59' E 135°02'11 0.3
2018-Jun-12 07:17N 33°48' E 135°06'411.9
2018-Jun-12 06:57N 33°52' E 135°03'511.2
2018-Jun-12 06:30N 33°56' E 135°03'612.5
2018-Jun-12 06:00N 34°03' E 135°03'612.7
2018-Jun-12 05:30N 34°09' E 135°03'612.4
2018-Jun-12 05:00N 34°15' E 135°03'612.9
2018-Jun-12 04:30N 34°21' E 135°06'713.3
2018-Jun-12 04:00N 34°26' E 135°11'713.1
2018-Jun-12 03:30N 34°32' E 135°15'612.3
2018-Jun-12 03:00N 34°38' E 135°17'510.3
2018-Jun-12 02:30N 34°43' E 135°18'0 0.1
2018-Jun-12 02:00N 34°43' E 135°18'0 0.0
2018-Jun-12 01:30N 34°43' E 135°18'0 0.0
2018-Jun-12 01:00N 34°43' E 135°18'0 0.0
2018-Jun-12 00:30N 34°43' E 135°18'0 0.0
2018-Jun-12 00:00N 34°43' E 135°18'0 0.0
2018-Jun-11 23:30N 34°43' E 135°18'0 0.0
2018-Jun-11 23:00N 34°43' E 135°18'0 0.0
2018-Jun-11 22:30N 34°43' E 135°18'0 0.0
2018-Jun-11 22:00N 34°43' E 135°18'0 0.0
2018-Jun-11 21:23N 34°43' E 135°18'0 0.0
2018-Jun-11 21:00N 34°43' E 135°18'0 0.0
2018-Jun-11 20:30N 34°43' E 135°18'0 0.0
2018-Jun-11 20:00N 34°43' E 135°18'0 0.0
2018-Jun-11 19:30N 34°43' E 135°18'0 0.0
2018-Jun-11 19:00N 34°43' E 135°18'0 0.0
2018-Jun-11 18:30N 34°43' E 135°18'0 0.0
2018-Jun-11 18:00N 34°43' E 135°18'0 0.0
2018-Jun-11 17:29N 34°43' E 135°18'0 0.0
2018-Jun-11 17:00N 34°43' E 135°18'0 0.0
2018-Jun-11 16:30N 34°43' E 135°18'0 0.0
2018-Jun-11 16:00N 34°43' E 135°18'0 0.0
2018-Jun-11 15:30N 34°43' E 135°18'0 0.0
2018-Jun-11 15:00N 34°43' E 135°18'0 0.0
2018-Jun-11 14:30N 34°43' E 135°18'0 0.0
2018-Jun-11 14:00N 34°43' E 135°18'0 0.0
2018-Jun-11 13:30N 34°43' E 135°18'0 0.0
2018-Jun-11 13:00N 34°43' E 135°18'0 0.0
2018-Jun-11 12:30N 34°43' E 135°18'0 0.0
2018-Jun-11 12:00N 34°43' E 135°18'0 0.0
2018-Jun-11 11:30N 34°43' E 135°18'0 0.0
2018-Jun-11 11:00N 34°43' E 135°18'0 0.0
2018-Jun-11 10:30N 34°43' E 135°18'0 0.0
2018-Jun-11 10:00N 34°43' E 135°18'0 0.0
2018-Jun-11 09:30N 34°43' E 135°18'0 0.0
2018-Jun-11 09:00N 34°43' E 135°18'0 0.0
2018-Jun-11 08:30N 34°43' E 135°18'0 0.0
2018-Jun-11 08:00N 34°43' E 135°18'0 0.0
2018-Jun-11 07:30N 34°43' E 135°18'0 0.0
2018-Jun-11 07:00N 34°43' E 135°18'0 0.0
2018-Jun-11 06:30N 34°43' E 135°18'0 0.0
2018-Jun-11 06:00N 34°43' E 135°18'0 0.0
2018-Jun-11 05:29N 34°43' E 135°18'0 0.0
2018-Jun-11 05:00N 34°43' E 135°18'0 0.0
2018-Jun-11 04:30N 34°43' E 135°18'0 0.0
2018-Jun-11 04:00N 34°43' E 135°18'0 0.0
2018-Jun-11 03:30N 34°43' E 135°18'0 0.0
2018-Jun-11 03:00N 34°43' E 135°18'1 2.7
2018-Jun-11 02:30N 34°42' E 135°18'611.5
2018-Jun-11 02:00N 34°38' E 135°23'4 1.0
2018-Jun-10 22:18N 34°35' E 135°26'2 7.6
2018-Jun-10 22:00N 34°36' E 135°24'5 9.4
2018-Jun-10 21:30N 34°39' E 135°19'5 9.0
2018-Jun-10 21:00N 34°43' E 135°18'0 0.0
2018-Jun-10 20:30N 34°43' E 135°18'0 0.0
2018-Jun-10 20:00N 34°43' E 135°18'0 0.0
2018-Jun-10 19:30N 34°43' E 135°18'0 0.0
2018-Jun-10 19:00N 34°43' E 135°18'0 0.0
2018-Jun-10 18:30N 34°43' E 135°18'0 0.0
2018-Jun-10 17:58N 34°43' E 135°18'0 0.0
2018-Jun-10 17:30N 34°43' E 135°18'0 0.0
2018-Jun-10 17:00N 34°43' E 135°18'0 0.0
2018-Jun-10 16:30N 34°43' E 135°18'0 0.0
2018-Jun-10 16:00N 34°43' E 135°18'0 0.0
2018-Jun-10 15:30N 34°43' E 135°18'0 0.0
2018-Jun-10 15:00N 34°43' E 135°18'0 0.0
2018-Jun-10 14:30N 34°43' E 135°18'0 0.0
2018-Jun-10 13:30N 34°43' E 135°18'0 0.0
2018-Jun-10 13:00N 34°43' E 135°18'0 0.0
2018-Jun-10 12:30N 34°43' E 135°18'0 0.0
2018-Jun-10 12:00N 34°43' E 135°18'0 0.0
2018-Jun-10 11:27N 34°43' E 135°18'0 0.0
2018-Jun-10 11:00N 34°43' E 135°18'0 0.0
2018-Jun-10 10:30N 34°43' E 135°18'0 0.0
2018-Jun-10 10:00N 34°43' E 135°18'0 0.0
2018-Jun-10 09:29N 34°43' E 135°18'0 0.0
2018-Jun-10 09:00N 34°43' E 135°18'0 0.0
2018-Jun-10 08:30N 34°43' E 135°18'0 0.0
2018-Jun-10 08:00N 34°43' E 135°18'0 0.0
2018-Jun-10 07:30N 34°43' E 135°18'0 0.0
2018-Jun-10 07:00N 34°43' E 135°18'0 0.0
2018-Jun-10 06:30N 34°43' E 135°18'0 0.0
2018-Jun-10 06:00N 34°43' E 135°18'0 0.0
2018-Jun-10 05:30N 34°43' E 135°18'0 0.0
2018-Jun-10 05:00N 34°43' E 135°18'0 0.0
2018-Jun-10 04:30N 34°43' E 135°18'0 0.0
2018-Jun-10 04:00N 34°43' E 135°18'0 0.0
2018-Jun-10 03:30N 34°43' E 135°18'0 0.0
2018-Jun-10 03:00N 34°43' E 135°18'0 0.0
2018-Jun-10 02:30N 34°43' E 135°18'0 0.0
2018-Jun-10 02:00N 34°43' E 135°18'0 0.0
2018-Jun-10 01:30N 34°43' E 135°18'0 0.0
2018-Jun-10 01:00N 34°43' E 135°18'0 0.0
2018-Jun-10 00:30N 34°43' E 135°18'0 0.0
2018-Jun-10 00:00N 34°43' E 135°18'0 0.0
2018-Jun-09 23:30N 34°43' E 135°18'0 0.0
2018-Jun-09 23:00N 34°43' E 135°18'0 0.0
2018-Jun-09 22:30N 34°43' E 135°18'0 0.0
2018-Jun-09 22:00N 34°43' E 135°18'0 0.0
2018-Jun-09 21:30N 34°43' E 135°18'0 0.0
2018-Jun-09 21:00N 34°43' E 135°18'0 0.0
2018-Jun-09 20:30N 34°43' E 135°18'0 0.0
2018-Jun-09 20:00N 34°43' E 135°18'0 0.0
2018-Jun-09 19:30N 34°43' E 135°18'0 0.0
2018-Jun-09 19:00N 34°43' E 135°18'0 0.0
2018-Jun-09 18:30N 34°43' E 135°18'0 0.0
2018-Jun-09 18:00N 34°43' E 135°18'0 0.0
2018-Jun-09 17:30N 34°43' E 135°18'0 0.0
2018-Jun-09 17:00N 34°43' E 135°18'0 0.0
2018-Jun-09 16:30N 34°43' E 135°18'0 0.0
2018-Jun-09 16:00N 34°43' E 135°18'0 0.0
2018-Jun-09 15:00N 34°43' E 135°18'0 0.0
2018-Jun-09 14:30N 34°43' E 135°18'0 0.0
2018-Jun-09 14:00N 34°43' E 135°18'0 0.0
2018-Jun-09 13:30N 34°43' E 135°18'0 0.0
2018-Jun-09 13:00N 34°43' E 135°18'0 0.0
2018-Jun-09 12:30N 34°43' E 135°18'0 0.0
2018-Jun-09 12:00N 34°43' E 135°18'0 0.0
2018-Jun-09 11:30N 34°43' E 135°18'0 0.0
2018-Jun-09 11:00N 34°43' E 135°18'0 0.0
2018-Jun-09 10:30N 34°43' E 135°18'0 0.0
2018-Jun-09 10:00N 34°43' E 135°18'0 0.0
2018-Jun-09 09:30N 34°43' E 135°18'0 0.0
2018-Jun-09 09:00N 34°43' E 135°18'0 0.0
2018-Jun-09 08:30N 34°43' E 135°18'0 0.0
2018-Jun-09 08:00N 34°43' E 135°18'0 0.0
2018-Jun-09 07:30N 34°43' E 135°18'0 0.0
2018-Jun-09 07:00N 34°43' E 135°18'0 0.0
2018-Jun-09 06:30N 34°43' E 135°18'0 0.0
2018-Jun-09 06:00N 34°43' E 135°18'0 0.0
2018-Jun-09 05:30N 34°43' E 135°18'0 0.0
2018-Jun-09 05:00N 34°43' E 135°18'0 0.0
2018-Jun-09 04:30N 34°43' E 135°18'  

Dump ship's entire track history